createdAt,value
2022-10-06T00:01:27.471Z,11.40
2022-10-06T00:04:00.013Z,12.10
2022-10-06T00:06:32.198Z,12.00
2022-10-06T00:09:04.551Z,12.50
2022-10-06T00:11:37.840Z,12.30
2022-10-06T00:14:10.142Z,11.50
2022-10-06T00:16:42.469Z,12.80
2022-10-06T00:19:14.671Z,11.80
2022-10-06T00:21:47.029Z,11.40
2022-10-06T00:24:19.847Z,11.10
2022-10-06T00:26:52.125Z,11.60
2022-10-06T00:29:24.441Z,11.90
2022-10-06T00:31:57.295Z,11.80
2022-10-06T00:34:29.579Z,10.10
2022-10-06T00:37:01.852Z,13.00
2022-10-06T00:39:34.174Z,14.80
2022-10-06T00:42:06.566Z,12.80
2022-10-06T00:44:38.843Z,15.00
2022-10-06T00:47:11.172Z,12.80
2022-10-06T00:49:45.022Z,13.70
2022-10-06T00:52:20.234Z,14.00
2022-10-06T00:54:52.669Z,12.00
2022-10-06T00:57:25.196Z,14.60
2022-10-06T00:59:57.522Z,10.80
2022-10-06T01:02:36.063Z,10.80
2022-10-06T01:05:11.376Z,11.40
2022-10-06T01:07:43.902Z,15.70
2022-10-06T01:10:16.225Z,13.20
2022-10-06T01:12:48.580Z,11.90
2022-10-06T01:15:22.695Z,11.80
2022-10-06T01:18:01.212Z,12.80
2022-10-06T01:20:34.690Z,10.60
2022-10-06T01:23:10.369Z,11.50
2022-10-06T01:25:42.873Z,13.00
2022-10-06T01:28:16.300Z,23.30
2022-10-06T01:30:53.054Z,16.80
2022-10-06T01:33:27.373Z,20.50
2022-10-06T01:36:00.021Z,14.80
2022-10-06T01:38:32.750Z,15.10
2022-10-06T01:41:08.560Z,12.90
2022-10-06T01:43:41.105Z,18.00
2022-10-06T01:46:13.510Z,15.20
2022-10-06T01:48:46.593Z,11.90
2022-10-06T01:51:20.441Z,13.10
2022-10-06T01:53:52.692Z,9.80
2022-10-06T01:56:26.635Z,15.00
2022-10-06T01:58:58.874Z,9.90
2022-10-06T02:01:31.721Z,10.40
2022-10-06T02:04:04.132Z,13.10
2022-10-06T02:06:36.510Z,14.00
2022-10-06T02:09:09.828Z,13.50
2022-10-06T02:11:43.885Z,10.40
2022-10-06T02:14:18.197Z,10.60
2022-10-06T02:16:50.801Z,14.20
2022-10-06T02:19:23.316Z,12.80
2022-10-06T02:21:56.044Z,13.40
2022-10-06T02:24:28.391Z,17.50
2022-10-06T02:27:00.709Z,12.00
2022-10-06T02:29:33.081Z,14.90
2022-10-06T02:32:05.839Z,11.60
2022-10-06T02:34:38.125Z,10.30
2022-10-06T02:37:10.788Z,10.30
2022-10-06T02:39:43.252Z,11.30
2022-10-06T02:42:15.504Z,11.40
2022-10-06T02:44:48.244Z,14.80
2022-10-06T02:47:22.425Z,12.40
2022-10-06T02:49:54.756Z,14.30
2022-10-06T02:52:31.982Z,13.40
2022-10-06T02:55:05.075Z,15.20
2022-10-06T02:57:37.401Z,10.20
2022-10-06T03:00:12.640Z,11.10
2022-10-06T03:02:45.034Z,12.50
2022-10-06T03:05:17.798Z,10.30
2022-10-06T03:07:50.136Z,12.10
2022-10-06T03:10:23.258Z,10.30
2022-10-06T03:12:55.780Z,13.40
2022-10-06T03:15:28.887Z,12.30
2022-10-06T03:18:01.766Z,14.10
2022-10-06T03:20:34.075Z,10.50
2022-10-06T03:23:10.262Z,11.50
2022-10-06T03:25:45.516Z,11.50
2022-10-06T03:28:18.697Z,9.90
2022-10-06T03:30:51.087Z,9.90
2022-10-06T03:33:23.921Z,13.00
2022-10-06T03:36:03.796Z,11.30
2022-10-06T03:38:37.720Z,13.90
2022-10-06T03:41:12.089Z,11.60
2022-10-06T03:43:46.468Z,11.30
2022-10-06T03:46:20.925Z,10.30
2022-10-06T03:48:54.117Z,12.60
2022-10-06T03:51:31.404Z,13.70
2022-10-06T03:54:04.745Z,12.30
2022-10-06T03:56:39.947Z,11.60
2022-10-06T03:59:14.150Z,12.40
2022-10-06T04:01:49.401Z,11.40
2022-10-06T04:04:34.086Z,10.60
2022-10-06T04:07:10.362Z,13.40
2022-10-06T04:09:42.718Z,10.70
2022-10-06T04:12:16.250Z,11.50
2022-10-06T04:14:48.852Z,10.10
2022-10-06T04:17:21.132Z,11.60
2022-10-06T04:19:53.328Z,14.70
2022-10-06T04:22:25.663Z,15.00
2022-10-06T04:24:58.041Z,11.80
2022-10-06T04:27:30.492Z,10.80
2022-10-06T04:30:12.726Z,21.70
2022-10-06T04:32:45.930Z,10.30
2022-10-06T04:35:19.398Z,12.50
2022-10-06T04:37:52.038Z,9.50
2022-10-06T04:40:24.516Z,10.90
2022-10-06T04:42:57.571Z,12.30
2022-10-06T04:45:30.078Z,11.30
2022-10-06T04:48:02.530Z,12.90
2022-10-06T04:50:34.975Z,17.50
2022-10-06T04:53:13.813Z,17.60
2022-10-06T04:55:46.244Z,18.40
2022-10-06T04:58:18.585Z,19.80
2022-10-06T05:00:53.055Z,19.80
2022-10-06T05:03:25.721Z,15.00
2022-10-06T05:06:06.018Z,12.30
2022-10-06T05:08:38.636Z,10.20
2022-10-06T05:11:15.194Z,10.50
2022-10-06T05:13:52.976Z,9.30
2022-10-06T05:16:29.069Z,11.00
2022-10-06T05:19:08.013Z,9.30
2022-10-06T05:21:45.115Z,10.90
2022-10-06T05:24:22.778Z,13.70
2022-10-06T05:26:59.519Z,14.00
2022-10-06T05:29:35.385Z,15.40
2022-10-06T05:32:09.322Z,22.70
2022-10-06T05:34:42.488Z,67.60
2022-10-06T05:37:14.803Z,77.50
2022-10-06T05:39:47.823Z,44.30
2022-10-06T05:42:20.427Z,14.40
2022-10-06T05:44:53.017Z,20.70
2022-10-06T05:47:25.350Z,49.60
2022-10-06T05:49:57.616Z,15.90
2022-10-06T05:52:30.010Z,24.80
2022-10-06T05:55:02.987Z,41.00
2022-10-06T05:57:35.645Z,29.30
2022-10-06T06:00:11.197Z,14.60
2022-10-06T06:02:45.362Z,193.90
2022-10-06T06:05:19.272Z,229.90
2022-10-06T06:07:51.701Z,138.90
2022-10-06T06:10:24.157Z,43.90
2022-10-06T06:12:56.613Z,58.50
2022-10-06T06:16:01.999Z,29.50
2022-10-06T06:18:35.688Z,28.80
2022-10-06T06:21:10.712Z,28.20
2022-10-06T06:23:46.569Z,27.10
2022-10-06T06:26:23.620Z,32.10
2022-10-06T06:29:04.143Z,16.60
2022-10-06T06:31:39.863Z,20.10
2022-10-06T06:34:13.161Z,27.10
2022-10-06T06:36:52.205Z,20.80
2022-10-06T06:39:25.572Z,30.60
2022-10-06T06:41:58.369Z,38.20
2022-10-06T06:44:47.976Z,14.60
2022-10-06T06:47:40.244Z,28.60
2022-10-06T06:50:15.261Z,21.20
2022-10-06T06:52:47.566Z,19.70
2022-10-06T06:55:20.572Z,28.50
2022-10-06T06:57:54.925Z,11.30
2022-10-06T07:00:27.261Z,24.90
2022-10-06T07:03:00.959Z,23.80
2022-10-06T07:05:35.813Z,13.50
2022-10-06T07:08:09.952Z,49.50
2022-10-06T07:10:45.235Z,36.70
2022-10-06T07:13:18.668Z,21.80
2022-10-06T07:16:10.545Z,21.00
2022-10-06T07:19:00.326Z,27.00
2022-10-06T07:21:50.934Z,16.50
2022-10-06T07:24:42.163Z,13.20
2022-10-06T07:27:14.942Z,17.20
2022-10-06T07:29:47.338Z,11.90
2022-10-06T07:32:21.399Z,10.10
2022-10-06T07:34:55.431Z,15.60
2022-10-06T07:37:29.307Z,15.00
2022-10-06T07:40:02.779Z,9.20
2022-10-06T07:42:48.571Z,9.20
2022-10-06T07:45:42.555Z,9.00
2022-10-06T07:48:19.717Z,8.80
2022-10-06T07:50:56.725Z,7.60
2022-10-06T07:53:37.574Z,8.40
2022-10-06T07:56:20.685Z,12.00
2022-10-06T07:58:56.174Z,10.90
2022-10-06T08:01:30.155Z,8.20
2022-10-06T08:04:06.998Z,7.30
2022-10-06T08:06:39.662Z,7.80
2022-10-06T08:09:11.952Z,28.90
2022-10-06T08:11:45.224Z,54.80
2022-10-06T08:14:17.509Z,45.60
2022-10-06T08:16:49.869Z,56.70
2022-10-06T08:19:22.326Z,56.50
2022-10-06T08:21:54.573Z,24.90
2022-10-06T08:24:33.821Z,10.40
2022-10-06T08:27:14.813Z,31.20
2022-10-06T08:29:47.078Z,36.90
2022-10-06T08:32:20.161Z,14.30
2022-10-06T08:34:52.800Z,40.20
2022-10-06T08:37:26.946Z,16.20
2022-10-06T08:39:59.633Z,10.40
2022-10-06T08:42:39.848Z,30.40
2022-10-06T08:45:19.305Z,14.60
2022-10-06T08:47:56.531Z,8.50
2022-10-06T08:50:33.748Z,16.80
2022-10-06T08:53:15.480Z,17.00
2022-10-06T08:55:54.134Z,7.60
2022-10-06T08:58:38.527Z,7.90
2022-10-06T09:01:19.903Z,17.50
2022-10-06T09:03:54.345Z,9.10
2022-10-06T09:06:41.804Z,32.30
2022-10-06T09:09:29.389Z,9.40
2022-10-06T09:12:09.917Z,18.20
2022-10-06T09:14:45.610Z,16.50
2022-10-06T09:17:23.595Z,34.20
2022-10-06T09:20:01.615Z,194.50
2022-10-06T09:22:35.048Z,15.60
2022-10-06T09:25:20.252Z,17.50
2022-10-06T09:27:57.143Z,20.10
2022-10-06T09:30:29.850Z,26.60
2022-10-06T09:33:04.598Z,28.80
2022-10-06T09:38:09.436Z,113.70
2022-10-06T09:40:49.639Z,58.60
2022-10-06T09:43:26.884Z,28.30
2022-10-06T09:46:23.049Z,6.30
2022-10-06T09:49:18.880Z,22.00
2022-10-06T09:52:18.522Z,9.90
2022-10-06T09:55:10.185Z,4.30
2022-10-06T09:57:51.458Z,94.00
2022-10-06T10:00:31.921Z,148.90
2022-10-06T10:03:07.304Z,148.80
2022-10-06T10:05:47.046Z,82.90
2022-10-06T10:08:24.416Z,39.30
2022-10-06T10:11:37.392Z,14.60
2022-10-06T10:14:19.752Z,8.30
2022-10-06T10:16:53.494Z,7.90
2022-10-06T10:19:32.970Z,7.20
2022-10-06T10:22:06.134Z,5.30
2022-10-06T10:24:55.235Z,5.00
2022-10-06T10:27:36.949Z,6.40
2022-10-06T10:30:14.850Z,4.40
2022-10-06T10:33:00.472Z,5.20
2022-10-06T10:35:38.874Z,4.20
2022-10-06T10:38:18.741Z,3.90
2022-10-06T10:40:56.580Z,6.30
2022-10-06T10:43:35.252Z,2.00
2022-10-06T10:46:16.996Z,1.80
2022-10-06T10:48:55.524Z,4.40
2022-10-06T10:51:33.461Z,18.50
2022-10-06T10:54:10.764Z,71.40
2022-10-06T11:33:15.189Z,2.90
2022-10-06T11:35:49.722Z,2.20
2022-10-06T11:43:43.508Z,2.20
2022-10-06T11:46:32.071Z,2.80
2022-10-06T11:49:49.529Z,2.80
2022-10-06T11:52:53.689Z,1.70
2022-10-06T11:55:29.150Z,1.40
2022-10-06T11:58:41.401Z,3.30
2022-10-06T12:01:08.942Z,1.90
2022-10-06T12:04:14.075Z,1.90
2022-10-06T12:07:00.990Z,1.80
2022-10-06T12:09:53.973Z,1.50
2022-10-06T12:13:07.111Z,1.70
2022-10-06T12:19:24.059Z,2.20
2022-10-06T12:22:08.702Z,3.90
2022-10-06T12:24:46.169Z,2.60
2022-10-06T12:27:32.083Z,2.90
2022-10-06T12:30:19.047Z,1.80
2022-10-06T12:32:56.328Z,2.70
2022-10-06T12:35:37.188Z,5.20
2022-10-06T12:38:45.614Z,7.30
2022-10-06T12:41:57.703Z,5.10
2022-10-06T12:44:35.452Z,2.70
2022-10-06T12:47:14.825Z,3.30
2022-10-06T12:49:58.666Z,2.10
2022-10-06T12:52:45.131Z,2.20
2022-10-06T12:55:34.760Z,2.80
2022-10-06T12:58:08.059Z,4.40
2022-10-06T13:00:43.024Z,3.30
2022-10-06T13:03:24.399Z,3.00
2022-10-06T13:06:00.709Z,2.60
2022-10-06T13:08:35.003Z,2.50
2022-10-06T13:11:22.267Z,2.30
2022-10-06T13:13:56.356Z,2.60
2022-10-06T13:16:32.114Z,3.20
2022-10-06T13:19:04.561Z,3.50
2022-10-06T13:21:36.931Z,2.80
2022-10-06T13:24:15.026Z,4.70
2022-10-06T13:26:48.625Z,2.80
2022-10-06T13:29:24.120Z,1.80
2022-10-06T13:31:57.954Z,4.40
2022-10-06T13:34:34.971Z,9.40
2022-10-06T13:37:07.506Z,11.80
2022-10-06T13:39:39.794Z,7.50
2022-10-06T13:42:17.902Z,6.00
2022-10-06T13:44:59.576Z,7.10
2022-10-06T13:47:33.178Z,4.10
2022-10-06T13:50:08.514Z,5.20
2022-10-06T13:52:42.499Z,2.50
2022-10-06T13:55:22.565Z,2.20
2022-10-06T13:58:10.109Z,3.90
2022-10-06T14:00:55.981Z,3.80
2022-10-06T14:06:19.028Z,67.40
2022-10-06T14:08:55.208Z,8.90
2022-10-06T14:11:30.437Z,6.00
2022-10-06T14:14:05.877Z,2.10
2022-10-06T14:16:38.213Z,2.20
2022-10-06T14:19:38.910Z,6.90
2022-10-06T14:22:32.508Z,3.70
2022-10-06T14:25:11.776Z,3.20
2022-10-06T14:27:44.026Z,3.10
2022-10-06T14:30:17.064Z,3.50
2022-10-06T14:32:49.825Z,2.60
2022-10-06T14:35:22.292Z,3.90
2022-10-06T14:37:54.474Z,3.90
2022-10-06T14:40:26.849Z,3.80
2022-10-06T14:42:59.092Z,3.30
2022-10-06T14:45:36.195Z,3.50
2022-10-06T14:48:08.672Z,3.90
2022-10-06T14:50:41.496Z,7.40
2022-10-06T14:53:17.622Z,3.90
2022-10-06T14:55:49.891Z,3.40
2022-10-06T14:58:22.129Z,4.80
2022-10-06T15:00:54.412Z,3.90
2022-10-06T15:03:26.863Z,4.10
2022-10-06T15:06:22.604Z,5.30
2022-10-06T15:08:57.475Z,9.00
2022-10-06T15:11:31.204Z,2.80
2022-10-06T15:14:04.236Z,2.80
2022-10-06T15:16:40.731Z,4.90
2022-10-06T15:19:14.004Z,6.30
2022-10-06T15:21:46.601Z,4.90
2022-10-06T15:24:21.376Z,5.20
2022-10-06T15:27:11.259Z,7.00
2022-10-06T15:29:43.574Z,7.70
2022-10-06T15:32:15.958Z,8.50
2022-10-06T15:34:48.181Z,6.20
2022-10-06T15:37:21.130Z,6.90
2022-10-06T15:39:53.392Z,6.90
2022-10-06T15:42:25.704Z,7.00
2022-10-06T15:44:57.957Z,8.70
2022-10-06T15:47:30.223Z,8.90
2022-10-06T15:50:03.650Z,7.90
2022-10-06T15:52:36.212Z,8.40
2022-10-06T15:55:10.649Z,8.90
2022-10-06T15:57:42.946Z,6.20
2022-10-06T16:00:17.641Z,8.00
2022-10-06T16:05:47.408Z,11.30
2022-10-06T16:08:19.712Z,11.80
2022-10-06T16:10:53.548Z,9.50
2022-10-06T16:13:25.949Z,15.00
2022-10-06T16:15:58.533Z,24.00
2022-10-06T16:18:32.640Z,16.70
2022-10-06T16:21:04.992Z,17.80
2022-10-06T16:23:37.243Z,20.50
2022-10-06T16:26:09.565Z,25.60
2022-10-06T16:28:41.896Z,28.50
2022-10-06T16:31:14.182Z,27.30
2022-10-06T16:33:47.036Z,28.80
2022-10-06T16:36:19.916Z,36.30
2022-10-06T16:38:55.872Z,32.90
2022-10-06T16:41:28.255Z,35.00
2022-10-06T16:44:01.166Z,35.80
2022-10-06T16:46:34.205Z,32.20
2022-10-06T16:49:08.723Z,30.10
2022-10-06T16:51:43.003Z,26.20
2022-10-06T16:54:17.544Z,25.90
2022-10-06T16:56:52.785Z,27.80
2022-10-06T16:59:27.070Z,29.20
2022-10-06T17:01:59.281Z,46.50
2022-10-06T17:04:31.574Z,48.70
2022-10-06T17:07:04.376Z,60.00
2022-10-06T17:09:36.736Z,69.20
2022-10-06T17:12:09.027Z,67.30
2022-10-06T17:14:41.293Z,67.20
2022-10-06T17:17:13.585Z,71.90
2022-10-06T17:19:45.828Z,74.20
2022-10-06T17:22:18.072Z,191.90
2022-10-06T17:24:50.306Z,101.00
2022-10-06T17:27:23.841Z,94.90
2022-10-06T17:29:56.101Z,80.90
2022-10-06T17:32:28.421Z,110.20
2022-10-06T17:35:00.723Z,77.30
2022-10-06T17:37:35.130Z,80.40
2022-10-06T17:40:09.204Z,126.20
2022-10-06T17:42:42.107Z,140.50
2022-10-06T17:45:20.377Z,111.60
2022-10-06T17:47:53.819Z,91.60
2022-10-06T17:50:42.290Z,103.30
2022-10-06T17:53:14.800Z,112.40
2022-10-06T17:55:47.916Z,109.70
2022-10-06T17:58:29.741Z,457.30
2022-10-06T18:01:10.299Z,399.80
2022-10-06T18:03:46.756Z,370.60
2022-10-06T18:06:41.912Z,386.30
2022-10-06T18:09:15.235Z,326.20
2022-10-06T18:11:55.558Z,188.70
2022-10-06T18:14:33.642Z,406.60
2022-10-06T18:17:06.744Z,493.20
2022-10-06T18:19:40.435Z,226.20
2022-10-06T18:37:41.569Z,44.00
2022-10-06T18:40:14.986Z,51.40
2022-10-06T18:42:47.274Z,117.80
2022-10-06T18:45:39.563Z,201.60
2022-10-06T18:48:30.292Z,237.90
2022-10-06T18:51:06.431Z,109.40
2022-10-06T18:53:39.191Z,139.70
2022-10-06T18:56:11.218Z,195.70
2022-10-06T18:58:44.488Z,223.60
2022-10-06T19:01:16.951Z,275.70
2022-10-06T19:03:50.690Z,195.20
2022-10-06T19:06:22.991Z,113.30
2022-10-06T19:09:00.940Z,85.80
2022-10-06T19:11:46.097Z,128.10
2022-10-06T19:14:20.159Z,53.10
2022-10-06T19:16:59.032Z,48.60
2022-10-06T19:19:34.296Z,57.90
2022-10-06T19:22:07.470Z,145.40
2022-10-06T19:24:42.217Z,301.90
2022-10-06T19:29:53.164Z,139.40
2022-10-06T19:32:27.219Z,138.90
2022-10-06T19:34:59.500Z,169.60
2022-10-06T19:37:33.519Z,229.40
2022-10-06T19:40:08.327Z,246.70
2022-10-06T19:45:23.566Z,144.10
2022-10-06T19:47:57.502Z,134.60
2022-10-06T19:50:30.375Z,224.80
2022-10-06T19:53:04.775Z,117.30
2022-10-06T19:55:36.906Z,121.20
2022-10-06T19:58:09.071Z,140.50
2022-10-06T20:00:42.305Z,166.30
2022-10-06T20:03:14.335Z,103.00
2022-10-06T20:05:46.481Z,151.10
2022-10-06T20:08:18.597Z,101.70
2022-10-06T20:10:50.760Z,149.10
2022-10-06T20:13:22.911Z,80.90
2022-10-06T20:15:55.013Z,47.00
2022-10-06T20:18:27.208Z,39.00
2022-10-06T20:21:02.421Z,28.90
2022-10-06T20:23:34.468Z,24.70
2022-10-06T20:26:14.968Z,22.70
2022-10-06T20:28:47.568Z,26.00
2022-10-06T20:31:22.665Z,30.60
2022-10-06T20:33:58.146Z,32.80
2022-10-06T20:36:32.121Z,29.50
2022-10-06T20:39:31.135Z,39.00
2022-10-06T20:42:03.618Z,45.50
2022-10-06T20:44:36.054Z,48.10
2022-10-06T20:47:08.969Z,69.90
2022-10-06T20:49:42.618Z,67.40
2022-10-06T20:52:15.234Z,70.20
2022-10-06T20:54:47.280Z,53.50
2022-10-06T20:57:19.380Z,36.60
2022-10-06T20:59:52.649Z,34.50
2022-10-06T21:02:24.798Z,24.80
2022-10-06T21:04:57.590Z,21.80
2022-10-06T21:07:30.215Z,19.50
2022-10-06T21:10:02.390Z,20.90
2022-10-06T21:12:34.642Z,20.30
2022-10-06T21:15:07.648Z,14.60
2022-10-06T21:17:42.508Z,14.00
2022-10-06T21:20:15.053Z,14.00
2022-10-06T21:22:47.343Z,15.10
2022-10-06T21:25:19.719Z,14.90
2022-10-06T21:27:51.908Z,13.50
2022-10-06T21:30:24.543Z,14.90
2022-10-06T21:32:57.797Z,15.90
2022-10-06T21:35:30.067Z,20.00
2022-10-06T21:38:02.217Z,25.80
2022-10-06T21:40:38.532Z,16.30
2022-10-06T21:43:10.912Z,18.90
2022-10-06T21:45:47.434Z,53.30
2022-10-06T21:48:20.056Z,17.90
2022-10-06T21:50:58.509Z,14.90
2022-10-06T21:53:32.967Z,14.10
2022-10-06T21:56:05.330Z,15.20
2022-10-06T21:58:37.635Z,15.20
2022-10-06T22:01:14.032Z,16.10
2022-10-06T22:03:46.535Z,16.70
2022-10-06T22:06:20.111Z,16.40
2022-10-06T22:08:52.835Z,12.90
2022-10-06T22:11:27.373Z,15.50
2022-10-06T22:14:01.524Z,14.50
2022-10-06T22:16:35.579Z,19.70
2022-10-06T22:19:09.816Z,16.50
2022-10-06T22:21:43.844Z,14.60
2022-10-06T22:24:17.968Z,15.80
2022-10-06T22:26:50.888Z,20.40
2022-10-06T22:29:23.713Z,19.90
2022-10-06T22:31:56.181Z,18.70
2022-10-06T22:34:29.849Z,21.90
2022-10-06T22:37:01.999Z,20.00
2022-10-06T22:39:34.560Z,23.60
2022-10-06T22:42:06.992Z,21.10
2022-10-06T22:44:39.074Z,20.50
2022-10-06T22:47:11.188Z,18.40
2022-10-06T22:49:43.325Z,13.30
2022-10-06T22:52:15.421Z,21.20
2022-10-06T22:54:47.586Z,16.50
2022-10-06T22:57:19.748Z,20.70
2022-10-06T22:59:51.957Z,15.10
2022-10-06T23:02:24.091Z,16.70
2022-10-06T23:04:56.276Z,15.60
2022-10-06T23:07:28.433Z,15.10
2022-10-06T23:10:00.568Z,17.10
2022-10-06T23:12:32.663Z,14.00
2022-10-06T23:15:05.363Z,18.30
2022-10-06T23:17:38.025Z,14.30
2022-10-06T23:20:13.073Z,21.10
2022-10-06T23:22:45.228Z,14.70
2022-10-06T23:25:17.523Z,16.10
2022-10-06T23:27:49.670Z,11.30
2022-10-06T23:30:21.860Z,12.90
2022-10-06T23:32:53.937Z,10.90
2022-10-06T23:35:26.131Z,12.80
2022-10-06T23:37:58.243Z,13.10
2022-10-06T23:40:30.539Z,14.40
2022-10-06T23:43:02.794Z,15.60
2022-10-06T23:45:35.030Z,15.30
2022-10-06T23:48:07.147Z,14.10
2022-10-06T23:50:39.291Z,12.20
2022-10-06T23:53:11.841Z,12.70
2022-10-06T23:55:44.001Z,15.00
2022-10-06T23:58:16.623Z,12.60
